sensor_id;sensor_type;location;lat;lon;timestamp;temperature;humidity
80824;SHT35;70538;59.122;37.876;2023-07-31T00:01:55;18.76;70.35
80824;SHT35;70538;59.122;37.876;2023-07-31T00:04:23;18.77;70.34
80824;SHT35;70538;59.122;37.876;2023-07-31T00:06:51;18.80;70.30
80824;SHT35;70538;59.122;37.876;2023-07-31T00:09:19;18.80;70.30
80824;SHT35;70538;59.122;37.876;2023-07-31T00:11:46;18.87;70.26
80824;SHT35;70538;59.122;37.876;2023-07-31T00:14:14;18.94;70.06
80824;SHT35;70538;59.122;37.876;2023-07-31T00:16:42;18.97;69.76
80824;SHT35;70538;59.122;37.876;2023-07-31T00:19:10;19.04;69.54
80824;SHT35;70538;59.122;37.876;2023-07-31T00:21:37;19.10;69.34
80824;SHT35;70538;59.122;37.876;2023-07-31T00:24:05;19.15;69.22
80824;SHT35;70538;59.122;37.876;2023-07-31T00:26:33;19.21;69.07
80824;SHT35;70538;59.122;37.876;2023-07-31T00:29:00;19.23;69.06
80824;SHT35;70538;59.122;37.876;2023-07-31T00:31:28;19.18;69.16
80824;SHT35;70538;59.122;37.876;2023-07-31T00:33:56;19.12;69.36
80824;SHT35;70538;59.122;37.876;2023-07-31T00:36:24;19.02;69.65
80824;SHT35;70538;59.122;37.876;2023-07-31T00:38:52;18.95;69.99
80824;SHT35;70538;59.122;37.876;2023-07-31T00:41:19;18.85;70.33
80824;SHT35;70538;59.122;37.876;2023-07-31T00:43:47;18.77;70.78
80824;SHT35;70538;59.122;37.876;2023-07-31T00:46:15;18.63;71.25
80824;SHT35;70538;59.122;37.876;2023-07-31T00:48:43;18.56;71.66
80824;SHT35;70538;59.122;37.876;2023-07-31T00:51:11;18.53;71.83
80824;SHT35;70538;59.122;37.876;2023-07-31T00:53:38;18.55;71.87
80824;SHT35;70538;59.122;37.876;2023-07-31T00:56:11;18.53;71.92
80824;SHT35;70538;59.122;37.876;2023-07-31T00:58:39;18.56;71.99
80824;SHT35;70538;59.122;37.876;2023-07-31T01:01:08;18.55;71.95
80824;SHT35;70538;59.122;37.876;2023-07-31T01:03:36;18.55;71.93
80824;SHT35;70538;59.122;37.876;2023-07-31T01:06:40;18.55;71.92
80824;SHT35;70538;59.122;37.876;2023-07-31T01:12:04;18.47;72.27
80824;SHT35;70538;59.122;37.876;2023-07-31T01:14:36;18.47;72.27
80824;SHT35;70538;59.122;37.876;2023-07-31T01:17:04;18.46;72.28
80824;SHT35;70538;59.122;37.876;2023-07-31T01:19:32;18.46;72.19
80824;SHT35;70538;59.122;37.876;2023-07-31T01:22:16;18.50;72.16
80824;SHT35;70538;59.122;37.876;2023-07-31T01:27:43;18.49;72.15
80824;SHT35;70538;59.122;37.876;2023-07-31T01:30:16;18.40;72.26
80824;SHT35;70538;59.122;37.876;2023-07-31T01:32:46;18.39;72.37
80824;SHT35;70538;59.122;37.876;2023-07-31T01:35:15;18.38;72.44
80824;SHT35;70538;59.122;37.876;2023-07-31T01:37:43;18.36;72.44
80824;SHT35;70538;59.122;37.876;2023-07-31T01:40:11;18.38;72.35
80824;SHT35;70538;59.122;37.876;2023-07-31T01:42:38;18.39;72.35
80824;SHT35;70538;59.122;37.876;2023-07-31T01:45:07;18.42;72.21
80824;SHT35;70538;59.122;37.876;2023-07-31T01:47:34;18.46;72.05
80824;SHT35;70538;59.122;37.876;2023-07-31T01:50:02;18.49;71.81
80824;SHT35;70538;59.122;37.876;2023-07-31T01:52:30;18.57;71.53
80824;SHT35;70538;59.122;37.876;2023-07-31T01:54:58;18.66;71.13
80824;SHT35;70538;59.122;37.876;2023-07-31T01:57:25;18.74;70.66
80824;SHT35;70538;59.122;37.876;2023-07-31T01:59:53;18.84;70.37
80824;SHT35;70538;59.122;37.876;2023-07-31T02:02:22;18.90;69.98
80824;SHT35;70538;59.122;37.876;2023-07-31T02:04:50;19.00;69.52
80824;SHT35;70538;59.122;37.876;2023-07-31T02:07:18;19.07;69.21
80824;SHT35;70538;59.122;37.876;2023-07-31T02:09:45;19.16;69.01
80824;SHT35;70538;59.122;37.876;2023-07-31T02:12:15;19.28;68.64
80824;SHT35;70538;59.122;37.876;2023-07-31T02:14:43;19.35;68.19
80824;SHT35;70538;59.122;37.876;2023-07-31T02:17:10;19.43;67.85
80824;SHT35;70538;59.122;37.876;2023-07-31T02:19:58;19.52;67.38
80824;SHT35;70538;59.122;37.876;2023-07-31T02:22:25;19.57;67.43
80824;SHT35;70538;59.122;37.876;2023-07-31T02:24:53;19.59;67.66
80824;SHT35;70538;59.122;37.876;2023-07-31T02:27:21;19.57;67.93
80824;SHT35;70538;59.122;37.876;2023-07-31T02:29:55;19.57;68.06
80824;SHT35;70538;59.122;37.876;2023-07-31T02:32:24;19.56;68.15
80824;SHT35;70538;59.122;37.876;2023-07-31T02:34:52;19.52;68.27
80824;SHT35;70538;59.122;37.876;2023-07-31T02:37:19;19.50;68.35
80824;SHT35;70538;59.122;37.876;2023-07-31T02:39:47;19.48;68.42
80824;SHT35;70538;59.122;37.876;2023-07-31T02:42:15;19.42;68.61
80824;SHT35;70538;59.122;37.876;2023-07-31T02:44:43;19.39;68.82
80824;SHT35;70538;59.122;37.876;2023-07-31T02:47:10;19.35;69.02
80824;SHT35;70538;59.122;37.876;2023-07-31T02:49:38;19.33;69.22
80824;SHT35;70538;59.122;37.876;2023-07-31T02:52:06;19.32;69.35
80824;SHT35;70538;59.122;37.876;2023-07-31T02:54:34;19.33;69.54
80824;SHT35;70538;59.122;37.876;2023-07-31T02:57:01;19.31;69.65
80824;SHT35;70538;59.122;37.876;2023-07-31T02:59:30;19.28;69.61
80824;SHT35;70538;59.122;37.876;2023-07-31T03:01:57;19.26;69.59
80824;SHT35;70538;59.122;37.876;2023-07-31T03:04:25;19.19;69.71
80824;SHT35;70538;59.122;37.876;2023-07-31T03:06:53;19.07;69.86
80824;SHT35;70538;59.122;37.876;2023-07-31T03:09:21;18.95;70.26
80824;SHT35;70538;59.122;37.876;2023-07-31T03:11:48;18.87;70.41
80824;SHT35;70538;59.122;37.876;2023-07-31T03:14:16;18.83;70.62
80824;SHT35;70538;59.122;37.876;2023-07-31T03:16:44;18.80;70.84
80824;SHT35;70538;59.122;37.876;2023-07-31T03:19:12;18.78;70.97
80824;SHT35;70538;59.122;37.876;2023-07-31T03:21:40;18.81;70.92
80824;SHT35;70538;59.122;37.876;2023-07-31T03:24:08;18.83;70.92
80824;SHT35;70538;59.122;37.876;2023-07-31T03:26:36;18.85;70.90
80824;SHT35;70538;59.122;37.876;2023-07-31T03:29:05;18.87;70.83
80824;SHT35;70538;59.122;37.876;2023-07-31T03:31:33;18.90;70.76
80824;SHT35;70538;59.122;37.876;2023-07-31T03:34:01;18.85;70.80
80824;SHT35;70538;59.122;37.876;2023-07-31T03:36:29;18.80;70.84
80824;SHT35;70538;59.122;37.876;2023-07-31T03:38:57;18.81;70.98
80824;SHT35;70538;59.122;37.876;2023-07-31T03:41:25;18.80;71.02
80824;SHT35;70538;59.122;37.876;2023-07-31T03:43:53;18.81;71.03
80824;SHT35;70538;59.122;37.876;2023-07-31T03:46:20;18.87;70.95
80824;SHT35;70538;59.122;37.876;2023-07-31T03:48:49;18.91;70.78
80824;SHT35;70538;59.122;37.876;2023-07-31T03:51:17;18.91;70.64
80824;SHT35;70538;59.122;37.876;2023-07-31T03:53:45;18.95;70.58
80824;SHT35;70538;59.122;37.876;2023-07-31T03:56:13;19.01;70.41
80824;SHT35;70538;59.122;37.876;2023-07-31T03:58:41;19.07;70.21
80824;SHT35;70538;59.122;37.876;2023-07-31T04:01:09;19.15;70.01
80824;SHT35;70538;59.122;37.876;2023-07-31T04:03:36;19.19;69.79
80824;SHT35;70538;59.122;37.876;2023-07-31T04:06:04;19.31;69.54
80824;SHT35;70538;59.122;37.876;2023-07-31T04:08:34;19.35;69.30
80824;SHT35;70538;59.122;37.876;2023-07-31T04:11:02;19.46;69.00
80824;SHT35;70538;59.122;37.876;2023-07-31T04:13:30;19.49;68.74
80824;SHT35;70538;59.122;37.876;2023-07-31T04:15:58;19.55;68.59
80824;SHT35;70538;59.122;37.876;2023-07-31T04:18:25;19.63;68.53
80824;SHT35;70538;59.122;37.876;2023-07-31T04:20:53;19.70;68.32
80824;SHT35;70538;59.122;37.876;2023-07-31T04:23:21;19.77;68.15
80824;SHT35;70538;59.122;37.876;2023-07-31T04:25:49;19.83;67.96
80824;SHT35;70538;59.122;37.876;2023-07-31T04:28:17;19.88;67.75
80824;SHT35;70538;59.122;37.876;2023-07-31T04:30:45;19.95;67.71
80824;SHT35;70538;59.122;37.876;2023-07-31T04:33:16;20.01;67.59
80824;SHT35;70538;59.122;37.876;2023-07-31T04:35:52;20.05;67.40
80824;SHT35;70538;59.122;37.876;2023-07-31T04:38:21;20.10;67.05
80824;SHT35;70538;59.122;37.876;2023-07-31T04:40:49;20.12;67.03
80824;SHT35;70538;59.122;37.876;2023-07-31T04:43:17;20.18;66.87
80824;SHT35;70538;59.122;37.876;2023-07-31T04:45:46;20.24;66.69
80824;SHT35;70538;59.122;37.876;2023-07-31T04:48:15;20.31;66.47
80824;SHT35;70538;59.122;37.876;2023-07-31T04:50:43;20.36;66.38
80824;SHT35;70538;59.122;37.876;2023-07-31T04:53:11;20.45;65.89
80824;SHT35;70538;59.122;37.876;2023-07-31T04:55:39;20.53;65.73
80824;SHT35;70538;59.122;37.876;2023-07-31T04:58:07;20.56;65.71
80824;SHT35;70538;59.122;37.876;2023-07-31T05:00:35;20.62;65.50
80824;SHT35;70538;59.122;37.876;2023-07-31T05:03:02;20.70;65.20
80824;SHT35;70538;59.122;37.876;2023-07-31T05:05:30;20.76;65.23
80824;SHT35;70538;59.122;37.876;2023-07-31T05:07:58;20.80;65.17
80824;SHT35;70538;59.122;37.876;2023-07-31T05:10:25;20.86;64.82
80824;SHT35;70538;59.122;37.876;2023-07-31T05:12:53;20.83;64.04
80824;SHT35;70538;59.122;37.876;2023-07-31T05:15:21;20.86;64.25
80824;SHT35;70538;59.122;37.876;2023-07-31T05:17:49;20.88;64.29
80824;SHT35;70538;59.122;37.876;2023-07-31T05:20:16;20.95;64.17
80824;SHT35;70538;59.122;37.876;2023-07-31T05:22:44;21.00;63.88
80824;SHT35;70538;59.122;37.876;2023-07-31T05:25:12;21.01;63.96
80824;SHT35;70538;59.122;37.876;2023-07-31T05:27:39;20.98;63.97
80824;SHT35;70538;59.122;37.876;2023-07-31T05:30:07;20.97;63.79
80824;SHT35;70538;59.122;37.876;2023-07-31T05:32:35;21.01;63.57
80824;SHT35;70538;59.122;37.876;2023-07-31T05:35:03;21.05;63.35
80824;SHT35;70538;59.122;37.876;2023-07-31T05:37:31;21.01;63.24
80824;SHT35;70538;59.122;37.876;2023-07-31T05:40:00;21.03;63.03
80824;SHT35;70538;59.122;37.876;2023-07-31T05:42:30;21.07;63.00
80824;SHT35;70538;59.122;37.876;2023-07-31T05:44:58;21.04;63.01
80824;SHT35;70538;59.122;37.876;2023-07-31T05:47:25;21.07;63.01
80824;SHT35;70538;59.122;37.876;2023-07-31T05:49:53;21.05;63.14
80824;SHT35;70538;59.122;37.876;2023-07-31T05:52:21;21.08;63.11
80824;SHT35;70538;59.122;37.876;2023-07-31T05:54:48;21.01;63.23
80824;SHT35;70538;59.122;37.876;2023-07-31T05:57:16;21.00;63.11
80824;SHT35;70538;59.122;37.876;2023-07-31T05:59:44;21.05;63.03
80824;SHT35;70538;59.122;37.876;2023-07-31T06:02:12;21.07;63.03
80824;SHT35;70538;59.122;37.876;2023-07-31T06:04:40;21.12;63.00
80824;SHT35;70538;59.122;37.876;2023-07-31T06:07:08;21.15;62.82
80824;SHT35;70538;59.122;37.876;2023-07-31T06:09:36;21.14;62.74
80824;SHT35;70538;59.122;37.876;2023-07-31T06:12:04;21.14;62.39
80824;SHT35;70538;59.122;37.876;2023-07-31T06:14:31;21.20;62.06
80824;SHT35;70538;59.122;37.876;2023-07-31T06:16:59;21.21;62.03
80824;SHT35;70538;59.122;37.876;2023-07-31T06:19:27;21.17;62.15
80824;SHT35;70538;59.122;37.876;2023-07-31T06:21:55;21.20;61.76
80824;SHT35;70538;59.122;37.876;2023-07-31T06:24:22;21.28;61.71
80824;SHT35;70538;59.122;37.876;2023-07-31T06:26:51;21.30;61.35
80824;SHT35;70538;59.122;37.876;2023-07-31T06:29:18;21.27;61.35
80824;SHT35;70538;59.122;37.876;2023-07-31T06:31:46;21.27;61.39
80824;SHT35;70538;59.122;37.876;2023-07-31T06:34:14;21.28;61.21
80824;SHT35;70538;59.122;37.876;2023-07-31T06:36:42;21.32;61.30
80824;SHT35;70538;59.122;37.876;2023-07-31T06:39:12;21.37;61.17
80824;SHT35;70538;59.122;37.876;2023-07-31T06:41:40;21.46;61.23
80824;SHT35;70538;59.122;37.876;2023-07-31T06:44:08;21.58;61.18
80824;SHT35;70538;59.122;37.876;2023-07-31T06:46:36;21.75;61.11
80824;SHT35;70538;59.122;37.876;2023-07-31T06:49:04;21.89;60.92
80824;SHT35;70538;59.122;37.876;2023-07-31T06:51:32;22.03;60.61
80824;SHT35;70538;59.122;37.876;2023-07-31T06:54:00;22.15;60.31
80824;SHT35;70538;59.122;37.876;2023-07-31T06:56:27;22.27;60.40
80824;SHT35;70538;59.122;37.876;2023-07-31T06:58:56;22.48;60.14
80824;SHT35;70538;59.122;37.876;2023-07-31T07:01:23;22.68;59.58
80824;SHT35;70538;59.122;37.876;2023-07-31T07:03:51;22.82;58.57
80824;SHT35;70538;59.122;37.876;2023-07-31T07:06:19;22.92;58.30
80824;SHT35;70538;59.122;37.876;2023-07-31T07:08:47;22.99;57.92
80824;SHT35;70538;59.122;37.876;2023-07-31T07:11:16;23.06;57.84
80824;SHT35;70538;59.122;37.876;2023-07-31T07:13:44;23.14;57.37
80824;SHT35;70538;59.122;37.876;2023-07-31T07:16:11;23.10;56.31
80824;SHT35;70538;59.122;37.876;2023-07-31T07:18:39;23.07;56.63
80824;SHT35;70538;59.122;37.876;2023-07-31T07:21:20;23.08;56.74
80824;SHT35;70538;59.122;37.876;2023-07-31T07:23:48;23.15;56.00
80824;SHT35;70538;59.122;37.876;2023-07-31T07:26:15;23.17;55.61
80824;SHT35;70538;59.122;37.876;2023-07-31T07:28:43;23.13;55.33
80824;SHT35;70538;59.122;37.876;2023-07-31T07:31:11;23.03;55.72
80824;SHT35;70538;59.122;37.876;2023-07-31T07:33:38;23.03;55.92
80824;SHT35;70538;59.122;37.876;2023-07-31T07:36:06;23.00;55.42
80824;SHT35;70538;59.122;37.876;2023-07-31T07:38:37;23.06;55.52
80824;SHT35;70538;59.122;37.876;2023-07-31T07:41:06;23.02;55.51
80824;SHT35;70538;59.122;37.876;2023-07-31T07:43:34;23.10;55.99
80824;SHT35;70538;59.122;37.876;2023-07-31T07:46:02;23.30;55.97
80824;SHT35;70538;59.122;37.876;2023-07-31T07:48:30;23.51;55.23
80824;SHT35;70538;59.122;37.876;2023-07-31T07:50:57;23.55;54.78
80824;SHT35;70538;59.122;37.876;2023-07-31T07:53:25;23.55;54.51
80824;SHT35;70538;59.122;37.876;2023-07-31T07:55:53;23.51;54.11
80824;SHT35;70538;59.122;37.876;2023-07-31T07:58:21;23.42;54.77
80824;SHT35;70538;59.122;37.876;2023-07-31T08:00:52;23.41;54.66
80824;SHT35;70538;59.122;37.876;2023-07-31T08:03:19;23.41;54.86
80824;SHT35;70538;59.122;37.876;2023-07-31T08:05:47;23.41;55.06
80824;SHT35;70538;59.122;37.876;2023-07-31T08:08:15;23.44;55.05
80824;SHT35;70538;59.122;37.876;2023-07-31T08:10:43;23.54;54.76
80824;SHT35;70538;59.122;37.876;2023-07-31T08:13:11;23.63;54.38
80824;SHT35;70538;59.122;37.876;2023-07-31T08:15:41;23.70;54.69
80824;SHT35;70538;59.122;37.876;2023-07-31T08:18:10;23.82;54.70
80824;SHT35;70538;59.122;37.876;2023-07-31T08:20:39;23.92;53.99
80824;SHT35;70538;59.122;37.876;2023-07-31T08:23:07;23.99;53.89
80824;SHT35;70538;59.122;37.876;2023-07-31T08:25:35;23.99;53.91
80824;SHT35;70538;59.122;37.876;2023-07-31T08:28:04;24.00;53.45
80824;SHT35;70538;59.122;37.876;2023-07-31T08:30:34;23.96;53.44
80824;SHT35;70538;59.122;37.876;2023-07-31T08:33:02;23.97;53.43
80824;SHT35;70538;59.122;37.876;2023-07-31T08:35:30;24.02;53.10
80824;SHT35;70538;59.122;37.876;2023-07-31T08:37:58;24.03;52.89
80824;SHT35;70538;59.122;37.876;2023-07-31T08:40:26;23.99;53.43
80824;SHT35;70538;59.122;37.876;2023-07-31T08:42:55;24.09;53.47
80824;SHT35;70538;59.122;37.876;2023-07-31T08:45:24;24.21;53.35
80824;SHT35;70538;59.122;37.876;2023-07-31T08:47:52;24.42;53.13
80824;SHT35;70538;59.122;37.876;2023-07-31T08:50:21;24.60;53.08
80824;SHT35;70538;59.122;37.876;2023-07-31T08:52:51;24.76;52.22
80824;SHT35;70538;59.122;37.876;2023-07-31T08:55:19;24.85;51.47
80824;SHT35;70538;59.122;37.876;2023-07-31T08:57:53;24.85;51.06
80824;SHT35;70538;59.122;37.876;2023-07-31T09:00:21;24.86;51.43
80824;SHT35;70538;59.122;37.876;2023-07-31T09:03:07;25.02;51.29
80824;SHT35;70538;59.122;37.876;2023-07-31T09:05:39;25.06;51.02
80824;SHT35;70538;59.122;37.876;2023-07-31T09:08:10;24.93;51.27
80824;SHT35;70538;59.122;37.876;2023-07-31T09:10:45;24.83;51.23
80824;SHT35;70538;59.122;37.876;2023-07-31T09:13:14;24.85;51.42
80824;SHT35;70538;59.122;37.876;2023-07-31T09:15:45;24.90;51.15
80824;SHT35;70538;59.122;37.876;2023-07-31T09:18:14;24.92;51.13
80824;SHT35;70538;59.122;37.876;2023-07-31T09:20:46;25.05;50.94
80824;SHT35;70538;59.122;37.876;2023-07-31T09:23:43;25.23;49.51
80824;SHT35;70538;59.122;37.876;2023-07-31T09:26:13;25.30;49.07
80824;SHT35;70538;59.122;37.876;2023-07-31T09:28:55;25.47;49.13
80824;SHT35;70538;59.122;37.876;2023-07-31T09:31:53;25.71;48.41
80824;SHT35;70538;59.122;37.876;2023-07-31T09:34:30;25.68;47.70
80824;SHT35;70538;59.122;37.876;2023-07-31T09:37:01;25.57;47.91
80824;SHT35;70538;59.122;37.876;2023-07-31T09:39:29;25.41;47.87
80824;SHT35;70538;59.122;37.876;2023-07-31T09:41:58;25.24;48.33
80824;SHT35;70538;59.122;37.876;2023-07-31T09:44:43;25.05;48.78
80824;SHT35;70538;59.122;37.876;2023-07-31T09:47:22;24.97;49.08
80824;SHT35;70538;59.122;37.876;2023-07-31T09:49:53;24.96;48.87
80824;SHT35;70538;59.122;37.876;2023-07-31T09:52:20;24.93;48.82
80824;SHT35;70538;59.122;37.876;2023-07-31T09:54:48;24.83;48.72
80824;SHT35;70538;59.122;37.876;2023-07-31T09:57:17;24.65;49.08
80824;SHT35;70538;59.122;37.876;2023-07-31T09:59:47;24.50;49.42
80824;SHT35;70538;59.122;37.876;2023-07-31T10:02:22;24.40;49.62
80824;SHT35;70538;59.122;37.876;2023-07-31T10:04:51;24.30;49.95
80824;SHT35;70538;59.122;37.876;2023-07-31T10:07:25;24.28;49.95
80824;SHT35;70538;59.122;37.876;2023-07-31T10:09:53;24.28;50.15
80824;SHT35;70538;59.122;37.876;2023-07-31T10:12:25;24.18;50.27
80824;SHT35;70538;59.122;37.876;2023-07-31T10:15:03;24.13;50.47
80824;SHT35;70538;59.122;37.876;2023-07-31T10:17:34;24.20;50.51
80824;SHT35;70538;59.122;37.876;2023-07-31T10:20:04;24.28;50.18
80824;SHT35;70538;59.122;37.876;2023-07-31T10:22:34;24.28;49.99
80824;SHT35;70538;59.122;37.876;2023-07-31T10:25:02;24.41;50.17
80824;SHT35;70538;59.122;37.876;2023-07-31T10:27:34;24.58;49.96
80824;SHT35;70538;59.122;37.876;2023-07-31T10:30:03;24.73;49.83
80824;SHT35;70538;59.122;37.876;2023-07-31T10:32:32;24.88;49.51
80824;SHT35;70538;59.122;37.876;2023-07-31T10:35:01;24.96;49.13
80824;SHT35;70538;59.122;37.876;2023-07-31T10:37:38;25.06;49.04
80824;SHT35;70538;59.122;37.876;2023-07-31T10:40:10;25.22;48.80
80824;SHT35;70538;59.122;37.876;2023-07-31T10:42:51;25.47;48.49
80824;SHT35;70538;59.122;37.876;2023-07-31T10:45:35;25.79;47.50
80824;SHT35;70538;59.122;37.876;2023-07-31T10:48:16;26.39;47.11
80824;SHT35;70538;59.122;37.876;2023-07-31T10:50:55;27.12;45.85
80824;SHT35;70538;59.122;37.876;2023-07-31T10:53:30;27.60;44.81
80824;SHT35;70538;59.122;37.876;2023-07-31T10:56:05;27.89;44.12
80824;SHT35;70538;59.122;37.876;2023-07-31T10:58:33;28.09;43.74
80824;SHT35;70538;59.122;37.876;2023-07-31T11:01:04;28.27;43.36
80824;SHT35;70538;59.122;37.876;2023-07-31T11:03:48;28.26;43.20
80824;SHT35;70538;59.122;37.876;2023-07-31T11:06:17;28.17;43.49
80824;SHT35;70538;59.122;37.876;2023-07-31T11:08:50;28.09;43.00
80824;SHT35;70538;59.122;37.876;2023-07-31T11:11:20;27.84;42.68
80824;SHT35;70538;59.122;37.876;2023-07-31T11:13:50;27.44;42.52
80824;SHT35;70538;59.122;37.876;2023-07-31T11:16:21;26.89;43.19
80824;SHT35;70538;59.122;37.876;2023-07-31T11:18:50;26.44;44.50
80824;SHT35;70538;59.122;37.876;2023-07-31T11:21:21;26.10;45.60
80824;SHT35;70538;59.122;37.876;2023-07-31T11:23:52;25.90;46.08
80824;SHT35;70538;59.122;37.876;2023-07-31T11:26:24;25.71;46.58
80824;SHT35;70538;59.122;37.876;2023-07-31T11:28:52;25.60;46.98
80824;SHT35;70538;59.122;37.876;2023-07-31T11:31:20;25.48;47.31
80824;SHT35;70538;59.122;37.876;2023-07-31T11:33:48;25.37;47.74
80824;SHT35;70538;59.122;37.876;2023-07-31T11:36:17;25.31;47.95
80824;SHT35;70538;59.122;37.876;2023-07-31T11:38:46;25.33;48.16
80824;SHT35;70538;59.122;37.876;2023-07-31T11:41:15;25.31;48.05
80824;SHT35;70538;59.122;37.876;2023-07-31T11:43:46;25.30;48.17
80824;SHT35;70538;59.122;37.876;2023-07-31T11:46:15;25.31;48.23
80824;SHT35;70538;59.122;37.876;2023-07-31T11:48:43;25.40;48.26
80824;SHT35;70538;59.122;37.876;2023-07-31T11:51:13;25.50;47.80
80824;SHT35;70538;59.122;37.876;2023-07-31T11:53:47;25.71;48.08
80824;SHT35;70538;59.122;37.876;2023-07-31T11:56:17;25.92;48.66
80824;SHT35;70538;59.122;37.876;2023-07-31T11:59:05;26.12;48.85
80824;SHT35;70538;59.122;37.876;2023-07-31T12:01:36;26.24;49.09
80824;SHT35;70538;59.122;37.876;2023-07-31T12:04:04;26.40;49.28
80824;SHT35;70538;59.122;37.876;2023-07-31T12:06:35;26.48;49.11
80824;SHT35;70538;59.122;37.876;2023-07-31T12:09:05;26.60;48.85
80824;SHT35;70538;59.122;37.876;2023-07-31T12:11:43;26.60;48.58
80824;SHT35;70538;59.122;37.876;2023-07-31T12:14:22;26.88;48.42
80824;SHT35;70538;59.122;37.876;2023-07-31T12:16:58;27.22;47.66
80824;SHT35;70538;59.122;37.876;2023-07-31T12:19:26;27.47;47.33
80824;SHT35;70538;59.122;37.876;2023-07-31T12:21:59;27.85;46.99
80824;SHT35;70538;59.122;37.876;2023-07-31T12:24:28;28.43;45.95
80824;SHT35;70538;59.122;37.876;2023-07-31T12:26:56;28.90;44.81
80824;SHT35;70538;59.122;37.876;2023-07-31T12:29:33;29.12;43.95
80824;SHT35;70538;59.122;37.876;2023-07-31T12:32:20;29.05;44.07
80824;SHT35;70538;59.122;37.876;2023-07-31T12:34:47;29.07;44.17
80824;SHT35;70538;59.122;37.876;2023-07-31T12:37:15;29.43;43.58
80824;SHT35;70538;59.122;37.876;2023-07-31T12:39:43;29.67;42.66
80824;SHT35;70538;59.122;37.876;2023-07-31T12:42:11;29.87;41.97
80824;SHT35;70538;59.122;37.876;2023-07-31T12:44:39;29.84;42.03
80824;SHT35;70538;59.122;37.876;2023-07-31T12:47:06;29.94;41.86
80824;SHT35;70538;59.122;37.876;2023-07-31T12:49:34;30.07;41.20
80824;SHT35;70538;59.122;37.876;2023-07-31T12:52:02;30.22;40.53
80824;SHT35;70538;59.122;37.876;2023-07-31T12:54:30;30.45;40.58
80824;SHT35;70538;59.122;37.876;2023-07-31T12:56:57;30.62;40.08
80824;SHT35;70538;59.122;37.876;2023-07-31T12:59:25;30.52;39.36
80824;SHT35;70538;59.122;37.876;2023-07-31T13:01:53;30.46;40.01
80824;SHT35;70538;59.122;37.876;2023-07-31T13:04:21;30.57;37.88
80824;SHT35;70538;59.122;37.876;2023-07-31T13:06:49;30.51;36.59
80824;SHT35;70538;59.122;37.876;2023-07-31T13:09:17;30.47;36.36
80824;SHT35;70538;59.122;37.876;2023-07-31T13:11:46;30.62;36.63
80824;SHT35;70538;59.122;37.876;2023-07-31T13:14:14;31.10;36.30
80824;SHT35;70538;59.122;37.876;2023-07-31T13:16:42;31.55;35.33
80824;SHT35;70538;59.122;37.876;2023-07-31T13:19:10;32.32;34.53
80824;SHT35;70538;59.122;37.876;2023-07-31T13:21:38;32.73;32.86
80824;SHT35;70538;59.122;37.876;2023-07-31T13:24:07;32.82;33.53
80824;SHT35;70538;59.122;37.876;2023-07-31T13:26:35;33.11;33.96
80824;SHT35;70538;59.122;37.876;2023-07-31T13:29:03;33.78;33.59
80824;SHT35;70538;59.122;37.876;2023-07-31T13:31:32;34.44;32.35
80824;SHT35;70538;59.122;37.876;2023-07-31T13:34:00;34.74;31.89
80824;SHT35;70538;59.122;37.876;2023-07-31T13:36:28;34.82;31.87
80824;SHT35;70538;59.122;37.876;2023-07-31T13:38:56;35.08;31.89
80824;SHT35;70538;59.122;37.876;2023-07-31T13:41:23;35.54;31.44
80824;SHT35;70538;59.122;37.876;2023-07-31T13:43:51;35.98;31.04
80824;SHT35;70538;59.122;37.876;2023-07-31T13:46:19;36.32;29.24
80824;SHT35;70538;59.122;37.876;2023-07-31T13:48:47;36.28;29.38
80824;SHT35;70538;59.122;37.876;2023-07-31T13:51:14;36.31;29.43
80824;SHT35;70538;59.122;37.876;2023-07-31T13:53:42;35.89;29.67
80824;SHT35;70538;59.122;37.876;2023-07-31T13:56:10;35.32;30.38
80824;SHT35;70538;59.122;37.876;2023-07-31T13:58:37;34.64;31.44
80824;SHT35;70538;59.122;37.876;2023-07-31T14:01:06;33.90;32.27
80824;SHT35;70538;59.122;37.876;2023-07-31T14:03:34;33.26;32.92
80824;SHT35;70538;59.122;37.876;2023-07-31T14:06:02;32.79;33.14
80824;SHT35;70538;59.122;37.876;2023-07-31T14:08:30;32.45;33.77
80824;SHT35;70538;59.122;37.876;2023-07-31T14:10:58;32.17;34.25
80824;SHT35;70538;59.122;37.876;2023-07-31T14:13:26;31.83;34.95
80824;SHT35;70538;59.122;37.876;2023-07-31T14:15:53;31.47;35.56
80824;SHT35;70538;59.122;37.876;2023-07-31T14:18:21;31.15;36.03
80824;SHT35;70538;59.122;37.876;2023-07-31T14:20:50;31.29;36.45
80824;SHT35;70538;59.122;37.876;2023-07-31T14:23:17;31.69;35.85
80824;SHT35;70538;59.122;37.876;2023-07-31T14:25:47;31.77;35.48
80824;SHT35;70538;59.122;37.876;2023-07-31T14:28:15;31.82;35.30
80824;SHT35;70538;59.122;37.876;2023-07-31T14:30:43;31.66;35.57
80824;SHT35;70538;59.122;37.876;2023-07-31T14:33:13;31.56;35.65
80824;SHT35;70538;59.122;37.876;2023-07-31T14:35:41;30.98;36.25
80824;SHT35;70538;59.122;37.876;2023-07-31T14:38:09;30.32;37.26
80824;SHT35;70538;59.122;37.876;2023-07-31T14:40:37;29.88;38.02
80824;SHT35;70538;59.122;37.876;2023-07-31T14:43:07;29.46;38.86
80824;SHT35;70538;59.122;37.876;2023-07-31T14:45:36;29.19;39.39
80824;SHT35;70538;59.122;37.876;2023-07-31T14:48:04;28.92;39.81
80824;SHT35;70538;59.122;37.876;2023-07-31T14:50:32;28.60;40.36
80824;SHT35;70538;59.122;37.876;2023-07-31T14:53:00;28.39;40.82
80824;SHT35;70538;59.122;37.876;2023-07-31T14:55:28;28.15;41.36
80824;SHT35;70538;59.122;37.876;2023-07-31T14:57:55;28.01;41.87
80824;SHT35;70538;59.122;37.876;2023-07-31T15:00:23;27.78;42.40
80824;SHT35;70538;59.122;37.876;2023-07-31T15:02:51;27.64;43.09
80824;SHT35;70538;59.122;37.876;2023-07-31T15:05:19;28.17;42.78
80824;SHT35;70538;59.122;37.876;2023-07-31T15:07:47;28.82;41.57
80824;SHT35;70538;59.122;37.876;2023-07-31T15:10:19;28.94;40.92
80824;SHT35;70538;59.122;37.876;2023-07-31T15:12:47;28.84;40.75
80824;SHT35;70538;59.122;37.876;2023-07-31T15:15:15;28.63;40.86
80824;SHT35;70538;59.122;37.876;2023-07-31T15:17:43;28.23;41.54
80824;SHT35;70538;59.122;37.876;2023-07-31T15:20:11;27.74;42.43
80824;SHT35;70538;59.122;37.876;2023-07-31T15:22:39;27.36;43.14
80824;SHT35;70538;59.122;37.876;2023-07-31T15:25:07;27.13;43.81
80824;SHT35;70538;59.122;37.876;2023-07-31T15:27:35;26.98;44.36
80824;SHT35;70538;59.122;37.876;2023-07-31T15:30:03;26.84;44.95
80824;SHT35;70538;59.122;37.876;2023-07-31T15:32:32;26.81;45.11
80824;SHT35;70538;59.122;37.876;2023-07-31T15:35:00;26.85;44.90